sensor_id;sensor_type;location;lat;lon;timestamp;P1;durP1;ratioP1;P2;durP2;ratioP2
5549;SDS011;2798;42.716;23.256;2022-12-17T00:00:48;12.20;;;9.90;;
5549;SDS011;2798;42.716;23.256;2022-12-17T00:03:32;15.47;;;11.20;;
5549;SDS011;2798;42.716;23.256;2022-12-17T00:06:17;14.83;;;10.20;;
5549;SDS011;2798;42.716;23.256;2022-12-17T00:09:01;13.70;;;10.17;;
5549;SDS011;2798;42.716;23.256;2022-12-17T00:11:44;16.23;;;10.13;;
5549;SDS011;2798;42.716;23.256;2022-12-17T00:14:28;13.33;;;10.20;;
5549;SDS011;2798;42.716;23.256;2022-12-17T00:17:12;14.57;;;10.33;;
5549;SDS011;2798;42.716;23.256;2022-12-17T00:19:56;13.67;;;10.13;;
5549;SDS011;2798;42.716;23.256;2022-12-17T00:22:40;14.50;;;10.90;;
5549;SDS011;2798;42.716;23.256;2022-12-17T00:25:24;15.30;;;10.33;;
5549;SDS011;2798;42.716;23.256;2022-12-17T00:28:09;11.83;;;9.93;;
5549;SDS011;2798;42.716;23.256;2022-12-17T00:30:52;17.17;;;11.63;;
5549;SDS011;2798;42.716;23.256;2022-12-17T00:33:36;14.00;;;10.40;;
5549;SDS011;2798;42.716;23.256;2022-12-17T00:36:20;15.07;;;10.07;;
5549;SDS011;2798;42.716;23.256;2022-12-17T00:39:04;12.10;;;10.43;;
5549;SDS011;2798;42.716;23.256;2022-12-17T00:41:48;13.90;;;10.03;;
5549;SDS011;2798;42.716;23.256;2022-12-17T00:44:32;14.73;;;9.77;;
5549;SDS011;2798;42.716;23.256;2022-12-17T00:47:16;16.03;;;10.87;;
5549;SDS011;2798;42.716;23.256;2022-12-17T00:49:59;13.73;;;9.70;;
5549;SDS011;2798;42.716;23.256;2022-12-17T00:52:43;12.73;;;9.33;;
5549;SDS011;2798;42.716;23.256;2022-12-17T00:55:44;14.77;;;10.17;;
5549;SDS011;2798;42.716;23.256;2022-12-17T00:58:28;16.43;;;9.80;;
5549;SDS011;2798;42.716;23.256;2022-12-17T01:01:11;14.17;;;10.00;;
5549;SDS011;2798;42.716;23.256;2022-12-17T01:03:55;13.97;;;10.20;;
5549;SDS011;2798;42.716;23.256;2022-12-17T01:06:39;11.80;;;9.30;;
5549;SDS011;2798;42.716;23.256;2022-12-17T01:09:23;13.37;;;10.03;;
5549;SDS011;2798;42.716;23.256;2022-12-17T01:12:07;11.63;;;9.20;;
5549;SDS011;2798;42.716;23.256;2022-12-17T01:14:51;12.47;;;9.20;;
5549;SDS011;2798;42.716;23.256;2022-12-17T01:17:35;11.87;;;8.93;;
5549;SDS011;2798;42.716;23.256;2022-12-17T01:20:19;13.07;;;9.53;;
5549;SDS011;2798;42.716;23.256;2022-12-17T01:23:16;13.50;;;9.23;;
5549;SDS011;2798;42.716;23.256;2022-12-17T01:26:00;14.20;;;10.13;;
5549;SDS011;2798;42.716;23.256;2022-12-17T01:28:44;13.30;;;9.10;;
5549;SDS011;2798;42.716;23.256;2022-12-17T01:31:28;13.07;;;8.80;;
5549;SDS011;2798;42.716;23.256;2022-12-17T01:34:12;10.93;;;9.10;;
5549;SDS011;2798;42.716;23.256;2022-12-17T01:36:56;11.87;;;8.87;;
5549;SDS011;2798;42.716;23.256;2022-12-17T01:39:40;14.37;;;9.63;;
5549;SDS011;2798;42.716;23.256;2022-12-17T01:42:24;13.10;;;9.30;;
5549;SDS011;2798;42.716;23.256;2022-12-17T01:45:11;11.80;;;9.00;;
5549;SDS011;2798;42.716;23.256;2022-12-17T01:47:59;12.47;;;9.23;;
5549;SDS011;2798;42.716;23.256;2022-12-17T01:50:46;13.20;;;8.73;;
5549;SDS011;2798;42.716;23.256;2022-12-17T01:53:32;11.50;;;9.03;;
5549;SDS011;2798;42.716;23.256;2022-12-17T01:56:17;13.30;;;9.30;;
5549;SDS011;2798;42.716;23.256;2022-12-17T01:59:01;12.70;;;8.70;;
5549;SDS011;2798;42.716;23.256;2022-12-17T02:01:46;10.23;;;8.03;;
5549;SDS011;2798;42.716;23.256;2022-12-17T02:04:30;12.13;;;8.93;;
5549;SDS011;2798;42.716;23.256;2022-12-17T02:10:20;10.57;;;8.50;;
5549;SDS011;2798;42.716;23.256;2022-12-17T02:13:13;11.90;;;8.80;;
5549;SDS011;2798;42.716;23.256;2022-12-17T02:15:59;11.00;;;8.03;;
5549;SDS011;2798;42.716;23.256;2022-12-17T02:18:53;11.17;;;8.30;;
5549;SDS011;2798;42.716;23.256;2022-12-17T02:21:37;11.13;;;8.60;;
5549;SDS011;2798;42.716;23.256;2022-12-17T02:27:18;11.90;;;8.27;;
5549;SDS011;2798;42.716;23.256;2022-12-17T02:30:05;12.30;;;8.43;;
5549;SDS011;2798;42.716;23.256;2022-12-17T02:32:50;10.57;;;8.37;;
5549;SDS011;2798;42.716;23.256;2022-12-17T02:35:36;11.07;;;8.30;;
5549;SDS011;2798;42.716;23.256;2022-12-17T02:38:22;11.83;;;8.37;;
5549;SDS011;2798;42.716;23.256;2022-12-17T02:41:07;11.20;;;8.13;;
5549;SDS011;2798;42.716;23.256;2022-12-17T02:43:53;9.40;;;7.60;;
5549;SDS011;2798;42.716;23.256;2022-12-17T02:46:38;11.10;;;7.70;;
5549;SDS011;2798;42.716;23.256;2022-12-17T02:49:23;10.33;;;7.63;;
5549;SDS011;2798;42.716;23.256;2022-12-17T02:52:07;9.13;;;7.23;;
5549;SDS011;2798;42.716;23.256;2022-12-17T02:54:51;11.40;;;8.70;;
5549;SDS011;2798;42.716;23.256;2022-12-17T02:57:34;8.00;;;6.73;;
5549;SDS011;2798;42.716;23.256;2022-12-17T03:00:18;10.43;;;7.40;;
5549;SDS011;2798;42.716;23.256;2022-12-17T03:03:02;9.97;;;7.27;;
5549;SDS011;2798;42.716;23.256;2022-12-17T03:05:46;11.93;;;7.90;;
5549;SDS011;2798;42.716;23.256;2022-12-17T03:08:30;9.00;;;7.53;;
5549;SDS011;2798;42.716;23.256;2022-12-17T03:11:14;9.53;;;7.57;;
5549;SDS011;2798;42.716;23.256;2022-12-17T03:13:58;10.40;;;7.43;;
5549;SDS011;2798;42.716;23.256;2022-12-17T03:16:42;10.23;;;7.50;;
5549;SDS011;2798;42.716;23.256;2022-12-17T03:19:26;9.40;;;6.67;;
5549;SDS011;2798;42.716;23.256;2022-12-17T03:22:09;8.63;;;7.27;;
5549;SDS011;2798;42.716;23.256;2022-12-17T03:24:53;9.77;;;7.20;;
5549;SDS011;2798;42.716;23.256;2022-12-17T03:27:37;10.03;;;7.13;;
5549;SDS011;2798;42.716;23.256;2022-12-17T03:30:21;8.73;;;7.10;;
5549;SDS011;2798;42.716;23.256;2022-12-17T03:33:07;8.30;;;6.63;;
5549;SDS011;2798;42.716;23.256;2022-12-17T03:35:51;9.03;;;6.90;;
5549;SDS011;2798;42.716;23.256;2022-12-17T03:38:35;10.17;;;7.40;;
5549;SDS011;2798;42.716;23.256;2022-12-17T03:41:19;9.60;;;6.60;;
5549;SDS011;2798;42.716;23.256;2022-12-17T03:44:03;7.60;;;6.00;;
5549;SDS011;2798;42.716;23.256;2022-12-17T03:46:47;8.43;;;6.30;;
5549;SDS011;2798;42.716;23.256;2022-12-17T03:49:31;9.13;;;6.70;;
5549;SDS011;2798;42.716;23.256;2022-12-17T03:52:15;7.77;;;6.23;;
5549;SDS011;2798;42.716;23.256;2022-12-17T03:54:59;8.40;;;6.20;;
5549;SDS011;2798;42.716;23.256;2022-12-17T03:57:43;8.90;;;6.03;;
5549;SDS011;2798;42.716;23.256;2022-12-17T04:00:27;7.57;;;6.30;;
5549;SDS011;2798;42.716;23.256;2022-12-17T04:03:11;8.60;;;6.30;;
5549;SDS011;2798;42.716;23.256;2022-12-17T04:05:54;8.43;;;6.30;;
5549;SDS011;2798;42.716;23.256;2022-12-17T04:08:38;8.27;;;6.67;;
5549;SDS011;2798;42.716;23.256;2022-12-17T04:11:22;10.60;;;6.70;;
5549;SDS011;2798;42.716;23.256;2022-12-17T04:14:06;7.13;;;6.00;;
5549;SDS011;2798;42.716;23.256;2022-12-17T04:16:50;8.90;;;6.60;;
5549;SDS011;2798;42.716;23.256;2022-12-17T04:19:34;9.47;;;5.40;;
5549;SDS011;2798;42.716;23.256;2022-12-17T04:22:18;10.23;;;6.27;;
5549;SDS011;2798;42.716;23.256;2022-12-17T04:25:02;8.67;;;5.80;;
5549;SDS011;2798;42.716;23.256;2022-12-17T04:27:45;7.13;;;5.33;;
5549;SDS011;2798;42.716;23.256;2022-12-17T04:30:29;8.17;;;5.90;;
5549;SDS011;2798;42.716;23.256;2022-12-17T04:33:13;7.13;;;5.47;;
5549;SDS011;2798;42.716;23.256;2022-12-17T04:35:57;7.83;;;5.37;;
5549;SDS011;2798;42.716;23.256;2022-12-17T04:38:41;9.23;;;5.90;;
5549;SDS011;2798;42.716;23.256;2022-12-17T04:41:25;8.67;;;6.00;;
5549;SDS011;2798;42.716;23.256;2022-12-17T04:44:09;6.77;;;5.67;;
5549;SDS011;2798;42.716;23.256;2022-12-17T04:46:53;8.03;;;6.03;;
5549;SDS011;2798;42.716;23.256;2022-12-17T04:49:37;8.20;;;5.93;;
5549;SDS011;2798;42.716;23.256;2022-12-17T04:52:21;6.87;;;5.97;;
5549;SDS011;2798;42.716;23.256;2022-12-17T04:55:05;8.87;;;5.70;;
5549;SDS011;2798;42.716;23.256;2022-12-17T04:57:49;10.67;;;6.13;;
5549;SDS011;2798;42.716;23.256;2022-12-17T05:00:33;7.30;;;6.10;;
5549;SDS011;2798;42.716;23.256;2022-12-17T05:03:17;6.40;;;5.67;;
5549;SDS011;2798;42.716;23.256;2022-12-17T05:06:00;7.30;;;5.63;;
5549;SDS011;2798;42.716;23.256;2022-12-17T05:08:44;6.70;;;5.57;;
5549;SDS011;2798;42.716;23.256;2022-12-17T05:11:28;5.60;;;5.00;;
5549;SDS011;2798;42.716;23.256;2022-12-17T05:14:12;6.20;;;5.20;;
5549;SDS011;2798;42.716;23.256;2022-12-17T05:16:56;8.00;;;5.43;;
5549;SDS011;2798;42.716;23.256;2022-12-17T05:19:40;6.93;;;5.03;;
5549;SDS011;2798;42.716;23.256;2022-12-17T05:22:23;8.20;;;5.10;;
5549;SDS011;2798;42.716;23.256;2022-12-17T05:25:07;8.73;;;4.90;;
5549;SDS011;2798;42.716;23.256;2022-12-17T05:27:51;6.20;;;5.17;;
5549;SDS011;2798;42.716;23.256;2022-12-17T05:30:38;7.33;;;5.37;;
5549;SDS011;2798;42.716;23.256;2022-12-17T05:33:22;7.97;;;4.97;;
5549;SDS011;2798;42.716;23.256;2022-12-17T05:36:06;7.17;;;5.93;;
5549;SDS011;2798;42.716;23.256;2022-12-17T05:38:50;6.53;;;5.37;;
5549;SDS011;2798;42.716;23.256;2022-12-17T05:41:34;6.87;;;5.50;;
5549;SDS011;2798;42.716;23.256;2022-12-17T05:44:18;7.03;;;5.33;;
5549;SDS011;2798;42.716;23.256;2022-12-17T05:47:02;6.77;;;5.60;;
5549;SDS011;2798;42.716;23.256;2022-12-17T05:49:46;6.93;;;5.70;;
5549;SDS011;2798;42.716;23.256;2022-12-17T05:52:30;7.67;;;5.60;;
5549;SDS011;2798;42.716;23.256;2022-12-17T05:55:14;6.47;;;5.73;;
5549;SDS011;2798;42.716;23.256;2022-12-17T05:58:04;7.80;;;5.57;;
5549;SDS011;2798;42.716;23.256;2022-12-17T06:00:48;6.27;;;5.37;;
5549;SDS011;2798;42.716;23.256;2022-12-17T06:03:32;9.30;;;5.67;;
5549;SDS011;2798;42.716;23.256;2022-12-17T06:06:16;5.80;;;5.20;;
5549;SDS011;2798;42.716;23.256;2022-12-17T06:09:00;6.00;;;5.13;;
5549;SDS011;2798;42.716;23.256;2022-12-17T06:11:44;7.00;;;5.37;;
5549;SDS011;2798;42.716;23.256;2022-12-17T06:14:27;6.90;;;5.53;;
5549;SDS011;2798;42.716;23.256;2022-12-17T06:17:11;6.70;;;5.77;;
5549;SDS011;2798;42.716;23.256;2022-12-17T06:19:55;7.60;;;5.70;;
5549;SDS011;2798;42.716;23.256;2022-12-17T06:22:39;8.00;;;6.87;;
5549;SDS011;2798;42.716;23.256;2022-12-17T06:25:23;8.47;;;5.50;;
5549;SDS011;2798;42.716;23.256;2022-12-17T06:28:07;8.00;;;6.03;;
5549;SDS011;2798;42.716;23.256;2022-12-17T06:30:52;6.80;;;6.10;;
5549;SDS011;2798;42.716;23.256;2022-12-17T06:33:36;9.73;;;6.30;;
5549;SDS011;2798;42.716;23.256;2022-12-17T06:36:20;8.33;;;6.30;;
5549;SDS011;2798;42.716;23.256;2022-12-17T06:39:04;6.77;;;5.33;;
5549;SDS011;2798;42.716;23.256;2022-12-17T06:41:48;8.70;;;5.67;;
5549;SDS011;2798;42.716;23.256;2022-12-17T06:44:36;6.30;;;5.07;;
5549;SDS011;2798;42.716;23.256;2022-12-17T06:47:20;7.63;;;6.10;;
5549;SDS011;2798;42.716;23.256;2022-12-17T06:50:04;9.30;;;6.00;;
5549;SDS011;2798;42.716;23.256;2022-12-17T06:52:56;7.23;;;5.90;;
5549;SDS011;2798;42.716;23.256;2022-12-17T06:55:40;7.47;;;5.30;;
5549;SDS011;2798;42.716;23.256;2022-12-17T06:58:24;6.73;;;5.73;;
5549;SDS011;2798;42.716;23.256;2022-12-17T07:01:07;8.70;;;5.30;;
5549;SDS011;2798;42.716;23.256;2022-12-17T07:03:51;14.30;;;6.00;;
5549;SDS011;2798;42.716;23.256;2022-12-17T07:06:35;7.47;;;5.87;;
5549;SDS011;2798;42.716;23.256;2022-12-17T07:09:19;9.63;;;5.67;;
5549;SDS011;2798;42.716;23.256;2022-12-17T07:12:03;8.37;;;5.57;;
5549;SDS011;2798;42.716;23.256;2022-12-17T07:14:47;7.80;;;5.13;;
5549;SDS011;2798;42.716;23.256;2022-12-17T07:17:31;8.33;;;5.83;;
5549;SDS011;2798;42.716;23.256;2022-12-17T07:20:15;6.57;;;4.83;;
5549;SDS011;2798;42.716;23.256;2022-12-17T07:22:59;7.07;;;4.67;;
5549;SDS011;2798;42.716;23.256;2022-12-17T07:25:43;5.67;;;4.50;;
5549;SDS011;2798;42.716;23.256;2022-12-17T07:28:27;8.70;;;5.63;;
5549;SDS011;2798;42.716;23.256;2022-12-17T07:31:11;6.50;;;5.20;;
5549;SDS011;2798;42.716;23.256;2022-12-17T07:33:55;6.33;;;5.10;;
5549;SDS011;2798;42.716;23.256;2022-12-17T07:36:39;10.20;;;5.10;;
5549;SDS011;2798;42.716;23.256;2022-12-17T07:39:22;7.47;;;4.90;;
5549;SDS011;2798;42.716;23.256;2022-12-17T07:42:06;6.67;;;4.80;;
5549;SDS011;2798;42.716;23.256;2022-12-17T07:44:50;9.17;;;5.40;;
5549;SDS011;2798;42.716;23.256;2022-12-17T07:47:34;7.60;;;4.87;;
5549;SDS011;2798;42.716;23.256;2022-12-17T07:50:18;8.23;;;4.80;;
5549;SDS011;2798;42.716;23.256;2022-12-17T07:53:02;7.53;;;5.23;;
5549;SDS011;2798;42.716;23.256;2022-12-17T07:55:46;7.03;;;4.60;;
5549;SDS011;2798;42.716;23.256;2022-12-17T07:58:30;8.77;;;4.03;;
5549;SDS011;2798;42.716;23.256;2022-12-17T08:01:14;8.63;;;4.27;;
5549;SDS011;2798;42.716;23.256;2022-12-17T08:03:58;7.17;;;4.57;;
5549;SDS011;2798;42.716;23.256;2022-12-17T08:06:42;5.63;;;3.90;;
5549;SDS011;2798;42.716;23.256;2022-12-17T08:09:26;6.30;;;5.30;;
5549;SDS011;2798;42.716;23.256;2022-12-17T08:12:10;5.13;;;3.80;;
5549;SDS011;2798;42.716;23.256;2022-12-17T08:14:54;9.30;;;5.13;;
5549;SDS011;2798;42.716;23.256;2022-12-17T08:17:38;6.00;;;3.40;;
5549;SDS011;2798;42.716;23.256;2022-12-17T08:20:22;4.27;;;3.50;;
5549;SDS011;2798;42.716;23.256;2022-12-17T08:23:05;4.67;;;3.50;;
5549;SDS011;2798;42.716;23.256;2022-12-17T08:25:49;5.23;;;4.10;;
5549;SDS011;2798;42.716;23.256;2022-12-17T08:28:33;4.10;;;2.90;;
5549;SDS011;2798;42.716;23.256;2022-12-17T08:31:18;3.77;;;2.93;;
5549;SDS011;2798;42.716;23.256;2022-12-17T08:34:02;4.20;;;3.10;;
5549;SDS011;2798;42.716;23.256;2022-12-17T08:36:46;4.00;;;3.03;;
5549;SDS011;2798;42.716;23.256;2022-12-17T08:39:30;8.37;;;3.60;;
5549;SDS011;2798;42.716;23.256;2022-12-17T08:42:14;5.70;;;3.10;;
5549;SDS011;2798;42.716;23.256;2022-12-17T08:44:58;4.70;;;3.50;;
5549;SDS011;2798;42.716;23.256;2022-12-17T08:47:42;5.33;;;3.73;;
5549;SDS011;2798;42.716;23.256;2022-12-17T08:50:25;4.67;;;4.20;;
5549;SDS011;2798;42.716;23.256;2022-12-17T08:53:10;14.60;;;4.53;;
5549;SDS011;2798;42.716;23.256;2022-12-17T08:55:54;5.50;;;4.07;;
5549;SDS011;2798;42.716;23.256;2022-12-17T08:58:38;5.87;;;3.90;;
5549;SDS011;2798;42.716;23.256;2022-12-17T09:01:22;7.33;;;3.67;;
5549;SDS011;2798;42.716;23.256;2022-12-17T09:04:06;4.03;;;3.33;;
5549;SDS011;2798;42.716;23.256;2022-12-17T09:06:50;5.80;;;3.33;;
5549;SDS011;2798;42.716;23.256;2022-12-17T09:09:34;5.80;;;3.23;;
5549;SDS011;2798;42.716;23.256;2022-12-17T09:12:18;4.40;;;3.30;;
5549;SDS011;2798;42.716;23.256;2022-12-17T09:15:02;3.70;;;3.20;;
5549;SDS011;2798;42.716;23.256;2022-12-17T09:17:46;3.80;;;3.40;;
5549;SDS011;2798;42.716;23.256;2022-12-17T09:20:30;5.03;;;3.03;;
5549;SDS011;2798;42.716;23.256;2022-12-17T09:23:14;5.10;;;3.23;;
5549;SDS011;2798;42.716;23.256;2022-12-17T09:25:58;2.97;;;2.67;;
5549;SDS011;2798;42.716;23.256;2022-12-17T09:28:42;3.67;;;2.90;;
5549;SDS011;2798;42.716;23.256;2022-12-17T09:31:26;4.07;;;2.90;;
5549;SDS011;2798;42.716;23.256;2022-12-17T09:34:10;4.47;;;3.10;;
5549;SDS011;2798;42.716;23.256;2022-12-17T09:36:54;5.90;;;3.40;;
5549;SDS011;2798;42.716;23.256;2022-12-17T09:39:38;3.37;;;2.87;;
5549;SDS011;2798;42.716;23.256;2022-12-17T09:42:57;5.80;;;3.10;;
5549;SDS011;2798;42.716;23.256;2022-12-17T09:48:37;3.00;;;2.70;;
5549;SDS011;2798;42.716;23.256;2022-12-17T09:51:25;5.97;;;2.80;;
5549;SDS011;2798;42.716;23.256;2022-12-17T09:54:31;3.20;;;2.73;;
5549;SDS011;2798;42.716;23.256;2022-12-17T09:57:17;5.40;;;2.27;;
5549;SDS011;2798;42.716;23.256;2022-12-17T10:00:08;4.10;;;2.10;;
5549;SDS011;2798;42.716;23.256;2022-12-17T10:02:53;3.50;;;2.03;;
5549;SDS011;2798;42.716;23.256;2022-12-17T10:05:37;5.73;;;1.97;;
5549;SDS011;2798;42.716;23.256;2022-12-17T10:08:20;2.90;;;1.80;;
5549;SDS011;2798;42.716;23.256;2022-12-17T10:13:58;2.57;;;1.57;;
5549;SDS011;2798;42.716;23.256;2022-12-17T10:16:45;2.13;;;1.70;;
5549;SDS011;2798;42.716;23.256;2022-12-17T10:19:37;1.87;;;1.60;;
5549;SDS011;2798;42.716;23.256;2022-12-17T10:22:22;1.47;;;1.37;;
5549;SDS011;2798;42.716;23.256;2022-12-17T10:27:52;1.93;;;1.63;;
5549;SDS011;2798;42.716;23.256;2022-12-17T10:30:36;1.40;;;1.30;;
5549;SDS011;2798;42.716;23.256;2022-12-17T10:33:21;1.10;;;1.10;;
5549;SDS011;2798;42.716;23.256;2022-12-17T10:36:15;1.63;;;1.17;;
5549;SDS011;2798;42.716;23.256;2022-12-17T10:39:01;2.03;;;1.10;;
5549;SDS011;2798;42.716;23.256;2022-12-17T10:41:45;1.23;;;1.13;;
5549;SDS011;2798;42.716;23.256;2022-12-17T10:44:33;2.43;;;1.40;;
5549;SDS011;2798;42.716;23.256;2022-12-17T10:47:18;1.93;;;1.30;;
5549;SDS011;2798;42.716;23.256;2022-12-17T10:50:21;1.20;;;1.10;;
5549;SDS011;2798;42.716;23.256;2022-12-17T10:53:18;2.17;;;1.20;;
5549;SDS011;2798;42.716;23.256;2022-12-17T10:56:03;6.67;;;1.50;;
5549;SDS011;2798;42.716;23.256;2022-12-17T10:58:51;1.30;;;1.20;;
5549;SDS011;2798;42.716;23.256;2022-12-17T11:01:36;2.80;;;1.40;;
5549;SDS011;2798;42.716;23.256;2022-12-17T11:07:30;1.40;;;1.10;;
5549;SDS011;2798;42.716;23.256;2022-12-17T11:10:13;1.40;;;1.30;;
5549;SDS011;2798;42.716;23.256;2022-12-17T11:12:58;1.10;;;1.00;;
5549;SDS011;2798;42.716;23.256;2022-12-17T11:15:45;1.37;;;1.27;;
5549;SDS011;2798;42.716;23.256;2022-12-17T11:21:19;2.10;;;1.53;;
5549;SDS011;2798;42.716;23.256;2022-12-17T11:24:04;1.73;;;1.30;;
5549;SDS011;2798;42.716;23.256;2022-12-17T11:26:50;2.43;;;1.27;;
5549;SDS011;2798;42.716;23.256;2022-12-17T11:29:36;1.50;;;1.40;;
5549;SDS011;2798;42.716;23.256;2022-12-17T11:32:29;2.40;;;1.40;;
5549;SDS011;2798;42.716;23.256;2022-12-17T11:41:02;3.23;;;1.80;;
5549;SDS011;2798;42.716;23.256;2022-12-17T11:52:46;4.40;;;1.80;;
5549;SDS011;2798;42.716;23.256;2022-12-17T11:55:35;2.83;;;1.73;;
5549;SDS011;2798;42.716;23.256;2022-12-17T12:27:17;4.50;;;3.40;;
5549;SDS011;2798;42.716;23.256;2022-12-17T12:32:57;4.43;;;2.80;;
5549;SDS011;2798;42.716;23.256;2022-12-17T12:35:45;4.87;;;3.13;;
5549;SDS011;2798;42.716;23.256;2022-12-17T12:38:30;5.40;;;3.50;;
5549;SDS011;2798;42.716;23.256;2022-12-17T12:41:20;10.37;;;3.70;;
5549;SDS011;2798;42.716;23.256;2022-12-17T12:44:11;7.23;;;3.80;;
5549;SDS011;2798;42.716;23.256;2022-12-17T12:46:59;6.53;;;3.60;;
5549;SDS011;2798;42.716;23.256;2022-12-17T12:49:53;6.33;;;3.87;;
5549;SDS011;2798;42.716;23.256;2022-12-17T12:52:40;5.80;;;3.40;;
5549;SDS011;2798;42.716;23.256;2022-12-17T12:55:34;4.37;;;3.77;;
5549;SDS011;2798;42.716;23.256;2022-12-17T13:01:05;6.60;;;4.13;;
5549;SDS011;2798;42.716;23.256;2022-12-17T13:03:50;4.33;;;3.60;;
5549;SDS011;2798;42.716;23.256;2022-12-17T13:11:43;5.47;;;3.77;;
5549;SDS011;2798;42.716;23.256;2022-12-17T13:14:18;5.20;;;4.00;;
5549;SDS011;2798;42.716;23.256;2022-12-17T13:21:55;6.80;;;4.10;;
5549;SDS011;2798;42.716;23.256;2022-12-17T13:24:24;6.70;;;4.80;;
5549;SDS011;2798;42.716;23.256;2022-12-17T13:26:49;6.17;;;4.93;;
5549;SDS011;2798;42.716;23.256;2022-12-17T13:29:22;8.17;;;4.80;;
5549;SDS011;2798;42.716;23.256;2022-12-17T13:34:19;5.63;;;4.13;;
5549;SDS011;2798;42.716;23.256;2022-12-17T13:36:54;7.63;;;5.53;;
5549;SDS011;2798;42.716;23.256;2022-12-17T13:41:59;5.00;;;4.13;;
5549;SDS011;2798;42.716;23.256;2022-12-17T13:44:29;6.53;;;4.70;;
5549;SDS011;2798;42.716;23.256;2022-12-17T13:46:55;6.00;;;4.40;;
5549;SDS011;2798;42.716;23.256;2022-12-17T13:49:25;6.03;;;5.07;;
5549;SDS011;2798;42.716;23.256;2022-12-17T13:52:04;5.80;;;4.80;;
5549;SDS011;2798;42.716;23.256;2022-12-17T13:54:29;8.40;;;5.63;;
5549;SDS011;2798;42.716;23.256;2022-12-17T13:57:05;7.67;;;5.73;;
5549;SDS011;2798;42.716;23.256;2022-12-17T13:59:30;9.57;;;5.93;;
5549;SDS011;2798;42.716;23.256;2022-12-17T14:01:55;9.43;;;6.50;;
5549;SDS011;2798;42.716;23.256;2022-12-17T14:04:24;7.67;;;5.43;;
5549;SDS011;2798;42.716;23.256;2022-12-17T14:06:50;7.33;;;5.90;;
5549;SDS011;2798;42.716;23.256;2022-12-17T14:09:17;8.90;;;6.13;;
5549;SDS011;2798;42.716;23.256;2022-12-17T14:11:43;6.57;;;5.40;;
5549;SDS011;2798;42.716;23.256;2022-12-17T14:14:30;7.60;;;5.80;;
5549;SDS011;2798;42.716;23.256;2022-12-17T14:16:56;7.03;;;5.57;;
5549;SDS011;2798;42.716;23.256;2022-12-17T14:19:21;7.70;;;5.97;;
5549;SDS011;2798;42.716;23.256;2022-12-17T14:21:47;7.70;;;6.27;;
5549;SDS011;2798;42.716;23.256;2022-12-17T14:24:12;8.20;;;5.60;;
5549;SDS011;2798;42.716;23.256;2022-12-17T14:26:52;6.40;;;4.93;;
5549;SDS011;2798;42.716;23.256;2022-12-17T14:29:28;5.77;;;5.17;;
5549;SDS011;2798;42.716;23.256;2022-12-17T14:31:57;8.43;;;5.23;;
5549;SDS011;2798;42.716;23.256;2022-12-17T14:34:23;7.27;;;4.70;;
5549;SDS011;2798;42.716;23.256;2022-12-17T14:36:57;6.40;;;5.60;;
5549;SDS011;2798;42.716;23.256;2022-12-17T14:39:27;7.93;;;5.70;;
5549;SDS011;2798;42.716;23.256;2022-12-17T14:41:54;7.40;;;5.13;;
5549;SDS011;2798;42.716;23.256;2022-12-17T14:44:41;7.50;;;6.23;;
5549;SDS011;2798;42.716;23.256;2022-12-17T14:47:23;6.60;;;5.70;;
5549;SDS011;2798;42.716;23.256;2022-12-17T14:54:52;7.50;;;5.17;;
5549;SDS011;2798;42.716;23.256;2022-12-17T14:57:19;6.10;;;5.07;;
5549;SDS011;2798;42.716;23.256;2022-12-17T14:59:44;6.57;;;5.30;;
5549;SDS011;2798;42.716;23.256;2022-12-17T15:02:23;6.67;;;4.70;;
5549;SDS011;2798;42.716;23.256;2022-12-17T15:04:50;7.30;;;5.47;;
5549;SDS011;2798;42.716;23.256;2022-12-17T15:07:19;8.33;;;5.47;;
5549;SDS011;2798;42.716;23.256;2022-12-17T15:09:45;9.40;;;5.60;;
5549;SDS011;2798;42.716;23.256;2022-12-17T15:12:10;8.90;;;5.60;;
5549;SDS011;2798;42.716;23.256;2022-12-17T15:14:36;7.10;;;5.83;;
5549;SDS011;2798;42.716;23.256;2022-12-17T15:17:01;10.33;;;6.37;;
5549;SDS011;2798;42.716;23.256;2022-12-17T15:19:26;8.23;;;5.77;;
5549;SDS011;2798;42.716;23.256;2022-12-17T15:21:51;10.67;;;5.87;;
5549;SDS011;2798;42.716;23.256;2022-12-17T15:24:18;8.63;;;5.93;;
5549;SDS011;2798;42.716;23.256;2022-12-17T15:26:44;11.03;;;6.40;;
5549;SDS011;2798;42.716;23.256;2022-12-17T15:29:09;9.00;;;6.13;;
5549;SDS011;2798;42.716;23.256;2022-12-17T15:31:35;7.70;;;5.67;;
5549;SDS011;2798;42.716;23.256;2022-12-17T15:34:00;11.53;;;5.50;;
5549;SDS011;2798;42.716;23.256;2022-12-17T15:36:25;9.03;;;6.40;;
5549;SDS011;2798;42.716;23.256;2022-12-17T15:38:51;6.70;;;5.43;;
5549;SDS011;2798;42.716;23.256;2022-12-17T15:41:16;8.30;;;6.10;;
5549;SDS011;2798;42.716;23.256;2022-12-17T15:44:00;9.30;;;6.43;;
5549;SDS011;2798;42.716;23.256;2022-12-17T15:46:25;9.23;;;5.87;;
5549;SDS011;2798;42.716;23.256;2022-12-17T15:48:50;8.70;;;6.10;;
5549;SDS011;2798;42.716;23.256;2022-12-17T15:51:15;10.23;;;6.53;;
5549;SDS011;2798;42.716;23.256;2022-12-17T15:53:41;9.00;;;6.93;;
5549;SDS011;2798;42.716;23.256;2022-12-17T15:56:14;9.70;;;6.57;;
5549;SDS011;2798;42.716;23.256;2022-12-17T15:58:43;7.87;;;5.67;;
5549;SDS011;2798;42.716;23.256;2022-12-17T16:01:09;11.00;;;6.77;;
5549;SDS011;2798;42.716;23.256;2022-12-17T16:03:34;10.53;;;6.33;;
5549;SDS011;2798;42.716;23.256;2022-12-17T16:06:00;10.03;;;6.70;;
5549;SDS011;2798;42.716;23.256;2022-12-17T16:08:25;10.97;;;7.80;;
5549;SDS011;2798;42.716;23.256;2022-12-17T16:10:50;11.10;;;7.33;;
5549;SDS011;2798;42.716;23.256;2022-12-17T16:13:16;13.57;;;8.40;;
5549;SDS011;2798;42.716;23.256;2022-12-17T16:15:41;12.70;;;8.33;;
5549;SDS011;2798;42.716;23.256;2022-12-17T16:18:06;11.43;;;7.20;;
5549;SDS011;2798;42.716;23.256;2022-12-17T16:20:31;12.00;;;8.17;;
5549;SDS011;2798;42.716;23.256;2022-12-17T16:22:57;16.13;;;10.00;;
5549;SDS011;2798;42.716;23.256;2022-12-17T16:25:22;13.00;;;7.73;;
5549;SDS011;2798;42.716;23.256;2022-12-17T16:27:47;21.17;;;12.23;;
5549;SDS011;2798;42.716;23.256;2022-12-17T16:30:12;19.03;;;12.40;;
5549;SDS011;2798;42.716;23.256;2022-12-17T16:32:38;20.43;;;11.63;;
5549;SDS011;2798;42.716;23.256;2022-12-17T16:35:03;23.47;;;13.30;;
5549;SDS011;2798;42.716;23.256;2022-12-17T16:37:29;20.70;;;13.17;;
5549;SDS011;2798;42.716;23.256;2022-12-17T16:39:54;23.70;;;14.63;;
5549;SDS011;2798;42.716;23.256;2022-12-17T16:42:19;24.77;;;14.43;;
5549;SDS011;2798;42.716;23.256;2022-12-17T16:44:44;26.37;;;15.77;;
5549;SDS011;2798;42.716;23.256;2022-12-17T16:47:10;22.50;;;14.03;;
5549;SDS011;2798;42.716;23.256;2022-12-17T16:49:35;26.20;;;16.50;;
5549;SDS011;2798;42.716;23.256;2022-12-17T16:52:00;21.57;;;15.83;;
5549;SDS011;2798;42.716;23.256;2022-12-17T16:54:28;23.73;;;14.83;;
5549;SDS011;2798;42.716;23.256;2022-12-17T16:56:53;25.00;;;16.10;;
5549;SDS011;2798;42.716;23.256;2022-12-17T16:59:19;24.50;;;16.00;;
5549;SDS011;2798;42.716;23.256;2022-12-17T17:01:45;25.00;;;16.10;;
5549;SDS011;2798;42.716;23.256;2022-12-17T17:04:11;26.97;;;16.50;;
5549;SDS011;2798;42.716;23.256;2022-12-17T17:06:38;27.00;;;17.17;;
5549;SDS011;2798;42.716;23.256;2022-12-17T17:09:03;30.23;;;17.87;;
5549;SDS011;2798;42.716;23.256;2022-12-17T17:11:29;25.13;;;17.10;;
5549;SDS011;2798;42.716;23.256;2022-12-17T17:13:54;29.00;;;17.90;;
5549;SDS011;2798;42.716;23.256;2022-12-17T17:16:21;26.70;;;16.93;;
5549;SDS011;2798;42.716;23.256;2022-12-17T17:18:48;27.90;;;17.60;;
5549;SDS011;2798;42.716;23.256;2022-12-17T17:21:14;30.10;;;17.70;;
5549;SDS011;2798;42.716;23.256;2022-12-17T17:23:40;25.03;;;16.83;;
5549;SDS011;2798;42.716;23.256;2022-12-17T17:26:05;26.00;;;17.63;;
5549;SDS011;2798;42.716;23.256;2022-12-17T17:28:31;26.53;;;16.80;;
5549;SDS011;2798;42.716;23.256;2022-12-17T17:30:59;26.10;;;18.37;;
5549;SDS011;2798;42.716;23.256;2022-12-17T17:33:32;25.97;;;16.80;;
5549;SDS011;2798;42.716;23.256;2022-12-17T17:36:17;31.30;;;18.20;;
5549;SDS011;2798;42.716;23.256;2022-12-17T17:38:43;28.07;;;17.20;;
5549;SDS011;2798;42.716;23.256;2022-12-17T17:41:13;29.17;;;18.10;;
5549;SDS011;2798;42.716;23.256;2022-12-17T17:43:38;27.00;;;18.07;;